createdAt,value
2018-12-26T00:02:15.206Z,9.21
2018-12-26T00:08:33.194Z,8.51
2018-12-26T00:11:22.636Z,9.19
2018-12-26T00:14:04.739Z,8.99
2018-12-26T00:16:54.134Z,8.48
2018-12-26T00:19:43.438Z,8.91
2018-12-26T00:22:34.179Z,8.97
2018-12-26T00:25:23.355Z,9.01
2018-12-26T00:28:31.878Z,8.57
2018-12-26T00:31:21.046Z,8.82
2018-12-26T00:34:10.520Z,8.55
2018-12-26T00:37:00.011Z,9.04
2018-12-26T00:39:49.157Z,8.45
2018-12-26T00:42:38.315Z,8.42
2018-12-26T00:45:28.024Z,8.45
2018-12-26T00:48:17.178Z,8.54
2018-12-26T00:51:06.336Z,8.73
2018-12-26T00:53:55.825Z,8.60
2018-12-26T00:56:44.999Z,8.18
2018-12-26T00:59:34.131Z,8.47
2018-12-26T01:02:23.273Z,8.67
2018-12-26T01:05:12.526Z,8.43
2018-12-26T01:08:01.677Z,8.31
2018-12-26T01:10:51.067Z,8.83
2018-12-26T01:13:40.218Z,8.89
2018-12-26T01:16:22.335Z,8.68
2018-12-26T01:19:11.499Z,8.45
2018-12-26T01:22:00.950Z,8.43
2018-12-26T01:24:50.081Z,8.53
2018-12-26T01:27:39.465Z,8.71
2018-12-26T01:33:36.716Z,8.70
2018-12-26T01:36:44.906Z,8.83
2018-12-26T01:39:34.530Z,8.38
2018-12-26T01:42:23.927Z,8.36
2018-12-26T01:45:13.400Z,9.01
2018-12-26T01:48:02.979Z,8.51
2018-12-26T01:50:52.190Z,8.60
2018-12-26T01:53:41.341Z,8.56
2018-12-26T01:56:30.481Z,8.32
2018-12-26T01:59:19.626Z,8.52
2018-12-26T02:02:08.777Z,8.53
2018-12-26T02:04:57.915Z,8.40
2018-12-26T02:07:47.384Z,8.68
2018-12-26T02:10:36.549Z,8.66
2018-12-26T02:13:25.702Z,8.55
2018-12-26T02:16:08.543Z,9.09
2018-12-26T02:18:57.750Z,8.68
2018-12-26T02:22:06.154Z,8.50
2018-12-26T02:24:55.307Z,8.85
2018-12-26T02:27:44.465Z,8.40
2018-12-26T02:30:33.609Z,8.63
2018-12-26T02:36:17.354Z,8.33
2018-12-26T02:39:07.774Z,8.69
2018-12-26T02:41:56.934Z,8.79
2018-12-26T02:44:46.158Z,8.85
2018-12-26T02:47:35.664Z,8.81
2018-12-26T02:50:24.823Z,8.70
2018-12-26T02:53:13.981Z,8.77
2018-12-26T02:56:03.202Z,8.76
2018-12-26T02:58:52.367Z,8.88
2018-12-26T03:01:41.517Z,8.48
2018-12-26T03:04:30.876Z,9.08
2018-12-26T03:07:21.744Z,9.03
2018-12-26T03:10:10.964Z,8.63
2018-12-26T03:13:00.138Z,8.40
2018-12-26T03:15:42.392Z,8.51
2018-12-26T03:18:31.628Z,8.98
2018-12-26T03:21:40.197Z,9.18
2018-12-26T03:24:29.374Z,8.66
2018-12-26T03:27:18.817Z,8.76
2018-12-26T03:33:02.525Z,8.44
2018-12-26T03:35:51.800Z,8.78
2018-12-26T03:41:49.280Z,8.90
2018-12-26T03:47:54.037Z,8.60
2018-12-26T03:50:43.489Z,9.02
2018-12-26T03:53:32.648Z,8.75
2018-12-26T03:56:22.228Z,8.99
2018-12-26T04:02:40.018Z,9.00
2018-12-26T04:08:43.943Z,8.67
2018-12-26T04:11:33.250Z,8.61
2018-12-26T04:14:15.290Z,8.68
2018-12-26T04:17:04.679Z,8.39
2018-12-26T04:26:24.384Z,8.61
2018-12-26T04:29:13.527Z,8.71
2018-12-26T04:32:02.734Z,8.58
2018-12-26T04:34:51.856Z,8.24
2018-12-26T04:37:41.011Z,8.21
2018-12-26T04:40:30.427Z,8.49
2018-12-26T04:43:19.603Z,8.57
2018-12-26T04:46:09.046Z,8.73
2018-12-26T04:48:58.527Z,8.46
2018-12-26T04:51:47.684Z,8.55
2018-12-26T04:54:36.848Z,8.64
2018-12-26T04:57:26.012Z,8.93
2018-12-26T05:00:15.158Z,8.67
2018-12-26T05:03:04.309Z,8.65
2018-12-26T05:05:53.755Z,8.45
2018-12-26T05:08:43.411Z,8.35
2018-12-26T05:11:32.597Z,8.41
2018-12-26T05:14:22.184Z,8.31
2018-12-26T05:17:06.241Z,8.27
2018-12-26T05:20:14.712Z,8.35
2018-12-26T05:23:03.877Z,8.13
2018-12-26T05:26:12.124Z,8.34
2018-12-26T05:29:01.257Z,8.52
2018-12-26T05:35:06.484Z,8.56
2018-12-26T05:37:55.631Z,8.41
2018-12-26T05:40:44.802Z,8.35
2018-12-26T05:43:33.964Z,8.29
2018-12-26T05:46:23.146Z,8.30
2018-12-26T05:49:12.512Z,8.37
2018-12-26T05:52:01.671Z,8.69
2018-12-26T05:54:50.810Z,8.91
2018-12-26T05:57:54.243Z,9.05
2018-12-26T06:00:30.874Z,8.91
2018-12-26T06:03:20.034Z,8.65
2018-12-26T06:06:09.290Z,9.17
2018-12-26T06:08:58.446Z,8.87
2018-12-26T06:11:47.872Z,8.83
2018-12-26T06:14:37.261Z,9.02
2018-12-26T06:17:19.858Z,8.88
2018-12-26T06:20:09.009Z,9.12
2018-12-26T06:22:58.172Z,8.58
2018-12-26T06:25:47.319Z,8.46
2018-12-26T06:28:36.740Z,8.88
2018-12-26T06:31:25.913Z,9.08
2018-12-26T06:34:15.070Z,8.86
2018-12-26T06:37:04.528Z,8.82
2018-12-26T06:40:00.778Z,9.09
2018-12-26T06:42:49.926Z,8.47
2018-12-26T06:45:39.095Z,8.99
2018-12-26T06:48:28.260Z,9.09
2018-12-26T06:51:17.419Z,8.21
2018-12-26T06:54:06.596Z,9.01
2018-12-26T06:56:56.092Z,8.93
2018-12-26T06:59:45.237Z,8.77
2018-12-26T07:02:34.729Z,9.06
2018-12-26T07:05:23.895Z,9.03
2018-12-26T07:08:13.049Z,8.96
2018-12-26T07:11:02.217Z,8.90
2018-12-26T07:13:51.702Z,8.97
2018-12-26T07:16:34.537Z,9.05
2018-12-26T07:19:24.188Z,8.72
2018-12-26T07:22:13.335Z,9.01
2018-12-26T07:25:02.520Z,9.00
2018-12-26T07:27:51.757Z,9.03
2018-12-26T07:30:40.907Z,9.13
2018-12-26T07:33:30.346Z,9.01
2018-12-26T07:36:19.811Z,9.16
2018-12-26T07:39:09.303Z,9.02
2018-12-26T07:41:58.689Z,9.07
2018-12-26T07:44:48.014Z,8.93
2018-12-26T07:47:37.413Z,9.19
2018-12-26T07:50:26.584Z,9.14
2018-12-26T07:53:15.960Z,9.05
2018-12-26T07:56:05.123Z,9.01
2018-12-26T07:58:54.272Z,9.01
2018-12-26T08:01:43.505Z,9.16
2018-12-26T08:04:52.076Z,8.81
2018-12-26T08:07:41.233Z,9.13
2018-12-26T08:10:30.396Z,8.55
2018-12-26T08:13:19.550Z,9.04
2018-12-26T08:16:01.574Z,9.17
2018-12-26T08:18:50.757Z,9.26
2018-12-26T08:21:39.915Z,9.09
2018-12-26T08:24:29.071Z,9.02
2018-12-26T08:27:18.346Z,9.09
2018-12-26T08:30:07.698Z,9.21
2018-12-26T08:32:56.867Z,9.20
2018-12-26T08:35:46.027Z,9.01
2018-12-26T08:38:35.257Z,9.14
2018-12-26T08:41:24.427Z,9.02
2018-12-26T08:44:13.614Z,7.81
2018-12-26T08:47:02.772Z,8.93
2018-12-26T08:49:51.913Z,8.97
2018-12-26T08:52:41.088Z,8.90
2018-12-26T08:55:30.236Z,9.15
2018-12-26T09:01:14.027Z,9.25
2018-12-26T09:04:03.179Z,9.14
2018-12-26T09:06:52.416Z,9.12
2018-12-26T09:10:00.959Z,8.98
2018-12-26T09:12:50.332Z,9.27
2018-12-26T09:15:39.496Z,9.17
2018-12-26T09:18:28.663Z,9.13
2018-12-26T09:21:18.113Z,9.20
2018-12-26T09:27:03.434Z,9.04
2018-12-26T09:29:53.162Z,9.20
2018-12-26T09:32:43.773Z,9.20
2018-12-26T09:35:33.047Z,9.23
2018-12-26T09:38:22.208Z,9.23
2018-12-26T09:41:11.806Z,8.80
2018-12-26T09:44:00.984Z,9.03
2018-12-26T09:46:50.428Z,9.11
2018-12-26T09:49:39.919Z,8.88
2018-12-26T09:52:29.397Z,9.09
2018-12-26T09:55:18.975Z,8.73
2018-12-26T09:58:08.165Z,9.21
2018-12-26T10:00:57.358Z,9.21
2018-12-26T10:03:46.528Z,8.71
2018-12-26T10:06:35.691Z,8.99
2018-12-26T10:09:24.907Z,9.16
2018-12-26T10:12:14.056Z,9.39
2018-12-26T10:15:03.553Z,8.67
2018-12-26T10:17:45.491Z,8.56
2018-12-26T10:20:34.643Z,8.97
2018-12-26T10:23:23.822Z,8.99
2018-12-26T10:26:13.062Z,9.14
2018-12-26T10:29:02.231Z,9.25
2018-12-26T10:31:51.393Z,9.06
2018-12-26T10:34:40.540Z,9.16
2018-12-26T10:37:29.694Z,9.04
2018-12-26T10:40:18.860Z,8.95
2018-12-26T10:43:08.367Z,8.95
2018-12-26T10:45:57.526Z,8.96
2018-12-26T10:48:47.210Z,8.70
2018-12-26T10:51:36.582Z,8.97
2018-12-26T10:54:25.748Z,9.09
2018-12-26T10:57:14.902Z,9.04
2018-12-26T11:03:19.576Z,8.97
2018-12-26T11:06:09.023Z,8.77
2018-12-26T11:08:58.408Z,8.47
2018-12-26T11:11:47.605Z,8.68
2018-12-26T11:14:36.761Z,8.78
2018-12-26T11:17:19.040Z,9.01
2018-12-26T11:20:11.225Z,9.14
2018-12-26T11:23:00.384Z,8.93
2018-12-26T11:26:08.971Z,8.93
2018-12-26T11:28:58.118Z,9.28
2018-12-26T11:31:47.618Z,8.96
2018-12-26T11:34:37.090Z,8.76
2018-12-26T11:37:26.324Z,9.21
2018-12-26T11:40:35.287Z,8.96
2018-12-26T11:43:24.614Z,8.68
2018-12-26T11:46:14.023Z,8.84
2018-12-26T11:49:03.507Z,8.87
2018-12-26T11:51:52.698Z,9.19
2018-12-26T11:54:41.841Z,8.80
2018-12-26T11:57:31.061Z,8.81
2018-12-26T12:00:20.766Z,8.88
2018-12-26T12:03:10.006Z,8.96
2018-12-26T12:05:59.483Z,8.59
2018-12-26T12:08:48.731Z,8.58
2018-12-26T12:11:37.890Z,8.33
2018-12-26T12:14:27.117Z,8.64
2018-12-26T12:17:08.767Z,8.83
2018-12-26T12:19:57.955Z,8.87
2018-12-26T12:22:47.112Z,8.55
2018-12-26T12:25:36.317Z,8.82
2018-12-26T12:28:25.504Z,8.78
2018-12-26T12:31:14.663Z,8.48
2018-12-26T12:34:04.077Z,8.42
2018-12-26T12:36:53.238Z,8.64
2018-12-26T12:40:01.457Z,8.46
2018-12-26T12:43:09.663Z,8.47
2018-12-26T12:45:59.207Z,8.42
2018-12-26T12:48:48.681Z,8.39
2018-12-26T12:51:38.167Z,8.59
2018-12-26T12:54:46.360Z,8.68
2018-12-26T12:57:35.830Z,8.56
2018-12-26T13:00:24.973Z,8.76
2018-12-26T13:03:14.136Z,8.44
2018-12-26T13:06:03.305Z,8.77
2018-12-26T13:08:52.484Z,8.56
2018-12-26T13:11:41.633Z,8.39
2018-12-26T13:14:30.822Z,8.47
2018-12-26T13:17:12.503Z,8.68
2018-12-26T13:20:01.692Z,8.84
2018-12-26T13:22:50.902Z,8.41
2018-12-26T13:25:40.049Z,8.75
2018-12-26T13:28:29.510Z,8.94
2018-12-26T13:31:18.753Z,8.18
2018-12-26T13:34:07.910Z,8.83
2018-12-26T13:36:57.068Z,8.66
2018-12-26T13:39:46.480Z,8.33
2018-12-26T13:42:35.613Z,8.86
2018-12-26T13:45:25.024Z,8.92
2018-12-26T13:48:14.254Z,8.67
2018-12-26T13:51:03.418Z,8.50
2018-12-26T13:53:52.587Z,8.58
2018-12-26T13:56:41.748Z,8.68
2018-12-26T13:59:30.919Z,9.03
2018-12-26T14:02:20.305Z,8.94
2018-12-26T14:05:09.549Z,8.73
2018-12-26T14:07:58.951Z,8.71
2018-12-26T14:10:48.449Z,8.68
2018-12-26T14:13:37.922Z,8.53
2018-12-26T14:16:19.885Z,8.69
2018-12-26T14:19:09.098Z,8.83
2018-12-26T14:21:58.246Z,8.71
2018-12-26T14:24:47.639Z,8.72
2018-12-26T14:27:37.414Z,8.63
2018-12-26T14:30:26.573Z,8.61
2018-12-26T14:33:15.730Z,8.36
2018-12-26T14:36:04.901Z,8.63
2018-12-26T14:38:54.375Z,8.54
2018-12-26T14:41:43.528Z,8.57
2018-12-26T14:44:32.682Z,8.46
2018-12-26T14:47:22.094Z,9.05
2018-12-26T14:50:30.295Z,8.67
2018-12-26T14:53:19.796Z,8.48
2018-12-26T14:56:09.252Z,8.58
2018-12-26T14:58:58.711Z,8.83
2018-12-26T15:01:47.877Z,8.81
2018-12-26T15:04:37.369Z,8.98
2018-12-26T15:07:26.573Z,8.63
2018-12-26T15:10:15.712Z,8.63
2018-12-26T15:13:04.882Z,8.64
2018-12-26T15:15:54.643Z,8.78
2018-12-26T15:18:43.775Z,8.53
2018-12-26T15:21:32.953Z,8.95
2018-12-26T15:24:22.329Z,8.92
2018-12-26T15:27:11.853Z,8.86
2018-12-26T15:30:00.991Z,8.85
2018-12-26T15:32:50.158Z,8.82
2018-12-26T15:35:39.477Z,9.00
2018-12-26T15:38:28.627Z,8.52
2018-12-26T15:41:17.811Z,8.72
2018-12-26T15:44:07.001Z,8.76
2018-12-26T15:46:56.186Z,8.92
2018-12-26T15:49:45.328Z,8.93
2018-12-26T15:52:34.480Z,8.80
2018-12-26T15:55:23.634Z,8.86
2018-12-26T15:58:12.838Z,8.90
2018-12-26T16:01:02.242Z,8.87
2018-12-26T16:03:51.419Z,8.75
2018-12-26T16:06:40.985Z,8.68
2018-12-26T16:09:30.162Z,9.07
2018-12-26T16:12:19.470Z,8.79
2018-12-26T16:15:28.981Z,9.24
2018-12-26T16:18:14.052Z,9.07
2018-12-26T16:21:03.226Z,8.98
2018-12-26T16:23:52.377Z,9.09
2018-12-26T16:26:41.587Z,9.37
2018-12-26T16:29:31.008Z,9.05
2018-12-26T16:32:20.428Z,9.04
2018-12-26T16:35:29.027Z,9.01
2018-12-26T16:38:18.180Z,9.20
2018-12-26T16:41:07.562Z,9.29
2018-12-26T16:43:56.745Z,9.30
2018-12-26T16:46:45.936Z,9.14
2018-12-26T16:49:35.351Z,9.35
2018-12-26T16:52:24.833Z,8.90
2018-12-26T16:55:14.070Z,8.99
2018-12-26T17:00:58.405Z,8.98
2018-12-26T17:03:47.615Z,9.13
2018-12-26T17:06:36.760Z,9.01
2018-12-26T17:12:21.221Z,9.00
2018-12-26T17:15:10.768Z,9.07
2018-12-26T17:17:52.497Z,8.99
2018-12-26T17:20:41.798Z,9.14
2018-12-26T17:23:31.483Z,9.19
2018-12-26T17:26:20.675Z,9.17
2018-12-26T17:29:09.843Z,9.28
2018-12-26T17:31:59.006Z,9.28
2018-12-26T17:34:48.158Z,9.19
2018-12-26T17:37:37.647Z,9.31
2018-12-26T17:40:26.826Z,9.31
2018-12-26T17:43:15.980Z,9.19
2018-12-26T17:49:20.868Z,9.27
2018-12-26T17:52:10.080Z,9.46
2018-12-26T17:55:37.683Z,9.40
2018-12-26T17:58:29.233Z,9.40
2018-12-26T18:01:56.890Z,9.36
2018-12-26T18:04:46.166Z,9.21
2018-12-26T18:07:35.327Z,9.08
2018-12-26T18:10:24.786Z,9.26
2018-12-26T18:13:13.920Z,9.39
2018-12-26T18:16:03.137Z,9.46
2018-12-26T18:18:52.584Z,9.67
2018-12-26T18:21:41.805Z,9.58
2018-12-26T18:24:30.980Z,9.62
2018-12-26T18:27:20.411Z,9.65
2018-12-26T18:33:39.688Z,9.52
2018-12-26T18:36:28.853Z,9.60
2018-12-26T18:39:18.011Z,9.84
2018-12-26T18:42:07.190Z,9.75
2018-12-26T18:44:56.361Z,9.74
2018-12-26T18:47:45.744Z,9.96
2018-12-26T18:50:35.168Z,9.91
2018-12-26T18:53:24.373Z,10.11
2018-12-26T18:56:13.530Z,10.09
2018-12-26T18:59:03.000Z,9.45
2018-12-26T19:01:52.211Z,9.89
2018-12-26T19:04:41.659Z,9.92
2018-12-26T19:07:49.776Z,9.80
2018-12-26T19:10:38.930Z,9.70
2018-12-26T19:13:28.100Z,9.89
2018-12-26T19:16:09.989Z,9.77
2018-12-26T19:18:59.181Z,10.00
2018-12-26T19:21:48.335Z,10.23
2018-12-26T19:24:37.486Z,9.86
2018-12-26T19:27:27.032Z,9.84
2018-12-26T19:30:16.201Z,9.90
2018-12-26T19:33:05.562Z,9.68
2018-12-26T19:35:54.742Z,9.71
2018-12-26T19:38:43.914Z,9.70
2018-12-26T19:41:33.403Z,9.83
2018-12-26T19:44:42.283Z,9.81
2018-12-26T19:47:31.808Z,9.63
2018-12-26T19:50:21.038Z,9.88
2018-12-26T19:53:10.215Z,9.77
2018-12-26T19:55:59.732Z,9.69
2018-12-26T19:58:49.170Z,9.52
2018-12-26T20:01:38.684Z,9.75
2018-12-26T20:04:28.060Z,9.80
2018-12-26T20:07:17.210Z,9.68
2018-12-26T20:10:07.759Z,10.00
2018-12-26T20:12:57.305Z,10.30
2018-12-26T20:15:46.470Z,9.95
2018-12-26T20:18:28.902Z,9.80
2018-12-26T20:21:18.060Z,10.18
2018-12-26T20:24:07.225Z,10.21
2018-12-26T20:26:56.408Z,9.90
2018-12-26T20:29:45.565Z,10.16
2018-12-26T20:32:34.781Z,10.31
2018-12-26T20:35:24.173Z,10.03
2018-12-26T20:38:13.347Z,10.22
2018-12-26T20:41:02.622Z,10.81
2018-12-26T20:44:10.803Z,10.71
2018-12-26T20:47:00.201Z,10.78
2018-12-26T20:49:49.436Z,10.47
2018-12-26T20:52:38.527Z,10.62
2018-12-26T20:55:28.009Z,10.63
2018-12-26T21:01:25.332Z,10.94
2018-12-26T21:04:15.274Z,10.87
2018-12-26T21:06:45.409Z,10.50
2018-12-26T21:09:16.468Z,10.54
2018-12-26T21:11:46.803Z,10.16
2018-12-26T21:14:17.294Z,10.19
2018-12-26T21:16:54.800Z,10.29
2018-12-26T21:19:19.335Z,10.26
2018-12-26T21:21:49.315Z,10.39
2018-12-26T21:24:19.404Z,10.50
2018-12-26T21:27:08.893Z,10.25
2018-12-26T21:29:38.870Z,10.30
2018-12-26T21:32:28.105Z,10.16
2018-12-26T21:35:17.590Z,10.01
2018-12-26T21:38:06.853Z,10.35
2018-12-26T21:41:15.170Z,10.19
2018-12-26T21:44:04.452Z,9.81
2018-12-26T21:46:53.900Z,10.06
2018-12-26T21:49:43.559Z,10.00
2018-12-26T21:52:32.718Z,10.01
2018-12-26T21:55:23.279Z,9.88
2018-12-26T21:57:54.038Z,10.34
2018-12-26T22:00:24.858Z,10.35
2018-12-26T22:02:55.190Z,10.27
2018-12-26T22:05:26.264Z,10.14
2018-12-26T22:07:57.348Z,10.27
2018-12-26T22:10:28.095Z,10.28
2018-12-26T22:12:58.446Z,10.36
2018-12-26T22:15:28.369Z,10.07
2018-12-26T22:17:58.447Z,10.01
2018-12-26T22:20:47.650Z,10.18
2018-12-26T22:23:36.824Z,9.79
2018-12-26T22:26:26.311Z,9.48
2018-12-26T22:29:15.597Z,9.40
2018-12-26T22:32:05.126Z,9.72
2018-12-26T22:34:54.945Z,9.49
2018-12-26T22:40:38.951Z,9.92
2018-12-26T22:43:28.508Z,9.98
2018-12-26T22:52:21.962Z,9.44
2018-12-26T22:58:19.389Z,9.51
2018-12-26T23:01:08.628Z,9.78
2018-12-26T23:03:57.811Z,9.88
2018-12-26T23:06:47.003Z,9.92
2018-12-26T23:09:36.225Z,9.90
2018-12-26T23:12:25.402Z,9.96
2018-12-26T23:18:02.553Z,9.59
2018-12-26T23:20:51.748Z,9.41
2018-12-26T23:23:40.931Z,9.68
2018-12-26T23:26:30.080Z,9.60
2018-12-26T23:29:19.321Z,9.96
2018-12-26T23:32:08.478Z,9.23
2018-12-26T23:34:57.652Z,9.34
2018-12-26T23:40:55.062Z,9.76
2018-12-26T23:43:44.686Z,9.81
2018-12-26T23:46:33.807Z,9.94
2018-12-26T23:49:23.065Z,9.79
2018-12-26T23:52:12.234Z,9.74
2018-12-26T23:55:01.410Z,9.91
2018-12-26T23:57:50.819Z,9.34
